Portada
METAR-TAF:

METAR-TAF

Aeroports :

Yasuj, Iran

latitud: 30-41-49N, longitud: 051-33E, altitud: 1825 m

Observació

L'informe es va fer fa 28 minuts, a les 09:00 UTC
Vent 6 kt del Oest/Nord-Oest
Temperatura 33°C
Humitat 5%
Pressió 1021 hPa
Visibilitat 10 km o més
Escasses núvols a una alçada de 3500 ft, Cumulonimbus.
Cel ennuvolat a una alçada de 4000 ft

METAR: OISY 020900Z 29006KT 9999 FEW035CB BKN040 33/M11 Q1021

Hora: 13:58 (09:28 UTC)


TAF: manca

Observacions i pronòstics meteorològics de més de 4000 aeroports (METAR i TAF).

Les estacions disponibles són els punts grocs i vermells al mapa.

Posi el ratolí al punt desitjat per veure el nom de l'estació.

Feu clic per veure les observacions i els pronòstics meteorològics.

Per canviar el mapa: feu clic els botons verds amb una creu de color negre per apropar; al botó verd amb un guió per allunyar la imatge; o en les fletxes verdes per a mapes adjacents.


METAR-TAF: